sensor_id;sensor_type;location;lat;lon;timestamp;P1;durP1;ratioP1;P2;durP2;ratioP2
74373;SDS011;62809;51.090;-115.358;2022-09-09T00:04:15;1.10;;;0.90;;
74373;SDS011;62809;51.090;-115.358;2022-09-09T00:09:18;1.40;;;0.90;;
74373;SDS011;62809;51.090;-115.358;2022-09-09T00:14:48;1.70;;;1.10;;
74373;SDS011;62809;51.090;-115.358;2022-09-09T00:17:33;1.70;;;1.00;;
74373;SDS011;62809;51.090;-115.358;2022-09-09T00:20:20;1.70;;;0.90;;
74373;SDS011;62809;51.090;-115.358;2022-09-09T00:23:19;2.30;;;1.20;;
74373;SDS011;62809;51.090;-115.358;2022-09-09T00:28:30;1.80;;;1.20;;
74373;SDS011;62809;51.090;-115.358;2022-09-09T00:31:15;1.50;;;1.00;;
74373;SDS011;62809;51.090;-115.358;2022-09-09T00:33:52;1.30;;;1.00;;
74373;SDS011;62809;51.090;-115.358;2022-09-09T00:36:25;1.30;;;1.00;;
74373;SDS011;62809;51.090;-115.358;2022-09-09T00:39:00;2.10;;;1.00;;
74373;SDS011;62809;51.090;-115.358;2022-09-09T00:44:34;1.20;;;0.90;;
74373;SDS011;62809;51.090;-115.358;2022-09-09T00:47:17;2.30;;;1.30;;
74373;SDS011;62809;51.090;-115.358;2022-09-09T00:50:03;2.40;;;0.90;;
74373;SDS011;62809;51.090;-115.358;2022-09-09T00:58:19;1.90;;;0.90;;
74373;SDS011;62809;51.090;-115.358;2022-09-09T01:00:55;1.30;;;0.90;;
74373;SDS011;62809;51.090;-115.358;2022-09-09T01:03:35;1.50;;;1.00;;
74373;SDS011;62809;51.090;-115.358;2022-09-09T01:12:28;2.30;;;1.10;;
74373;SDS011;62809;51.090;-115.358;2022-09-09T01:15:24;1.30;;;0.90;;
74373;SDS011;62809;51.090;-115.358;2022-09-09T01:18:12;1.90;;;1.10;;
74373;SDS011;62809;51.090;-115.358;2022-09-09T01:26:32;1.70;;;1.00;;
74373;SDS011;62809;51.090;-115.358;2022-09-09T01:29:02;1.80;;;1.30;;
74373;SDS011;62809;51.090;-115.358;2022-09-09T01:31:41;1.80;;;1.20;;
74373;SDS011;62809;51.090;-115.358;2022-09-09T01:34:20;2.40;;;1.00;;
74373;SDS011;62809;51.090;-115.358;2022-09-09T01:39:27;2.00;;;1.10;;
74373;SDS011;62809;51.090;-115.358;2022-09-09T01:41:56;1.50;;;1.00;;
74373;SDS011;62809;51.090;-115.358;2022-09-09T01:44:24;2.30;;;1.10;;
74373;SDS011;62809;51.090;-115.358;2022-09-09T01:46:55;1.80;;;1.10;;
74373;SDS011;62809;51.090;-115.358;2022-09-09T01:49:23;1.60;;;1.10;;
74373;SDS011;62809;51.090;-115.358;2022-09-09T01:51:53;1.40;;;1.00;;
74373;SDS011;62809;51.090;-115.358;2022-09-09T01:54:25;1.60;;;1.20;;
74373;SDS011;62809;51.090;-115.358;2022-09-09T02:05:16;1.50;;;1.20;;
74373;SDS011;62809;51.090;-115.358;2022-09-09T02:07:50;1.80;;;1.10;;
74373;SDS011;62809;51.090;-115.358;2022-09-09T02:10:45;1.60;;;1.10;;
74373;SDS011;62809;51.090;-115.358;2022-09-09T02:13:19;1.70;;;1.20;;
74373;SDS011;62809;51.090;-115.358;2022-09-09T02:15:52;1.40;;;1.00;;
74373;SDS011;62809;51.090;-115.358;2022-09-09T02:18:25;1.80;;;1.30;;
74373;SDS011;62809;51.090;-115.358;2022-09-09T02:20:57;2.40;;;1.20;;
74373;SDS011;62809;51.090;-115.358;2022-09-09T02:23:26;1.70;;;1.00;;
74373;SDS011;62809;51.090;-115.358;2022-09-09T02:25:57;1.70;;;1.10;;
74373;SDS011;62809;51.090;-115.358;2022-09-09T02:28:29;2.50;;;1.10;;
74373;SDS011;62809;51.090;-115.358;2022-09-09T02:30:59;1.90;;;1.40;;
74373;SDS011;62809;51.090;-115.358;2022-09-09T02:33:32;1.30;;;1.00;;
74373;SDS011;62809;51.090;-115.358;2022-09-09T02:36:03;1.50;;;1.10;;
74373;SDS011;62809;51.090;-115.358;2022-09-09T02:38:39;1.70;;;1.30;;
74373;SDS011;62809;51.090;-115.358;2022-09-09T02:41:33;2.00;;;1.10;;
74373;SDS011;62809;51.090;-115.358;2022-09-09T02:44:12;1.80;;;1.10;;
74373;SDS011;62809;51.090;-115.358;2022-09-09T02:47:06;1.50;;;1.00;;
74373;SDS011;62809;51.090;-115.358;2022-09-09T02:50:10;1.70;;;1.10;;
74373;SDS011;62809;51.090;-115.358;2022-09-09T02:52:59;2.50;;;1.20;;
74373;SDS011;62809;51.090;-115.358;2022-09-09T02:58:09;1.70;;;1.10;;
74373;SDS011;62809;51.090;-115.358;2022-09-09T03:00:48;1.80;;;1.10;;
74373;SDS011;62809;51.090;-115.358;2022-09-09T03:03:17;1.30;;;1.00;;
74373;SDS011;62809;51.090;-115.358;2022-09-09T03:05:47;2.30;;;1.20;;
74373;SDS011;62809;51.090;-115.358;2022-09-09T03:08:16;2.00;;;1.10;;
74373;SDS011;62809;51.090;-115.358;2022-09-09T03:10:44;1.20;;;1.00;;
74373;SDS011;62809;51.090;-115.358;2022-09-09T03:13:13;2.00;;;1.40;;
74373;SDS011;62809;51.090;-115.358;2022-09-09T03:15:41;1.70;;;1.20;;
74373;SDS011;62809;51.090;-115.358;2022-09-09T03:18:08;2.30;;;1.30;;
74373;SDS011;62809;51.090;-115.358;2022-09-09T03:20:35;1.70;;;1.10;;
74373;SDS011;62809;51.090;-115.358;2022-09-09T03:23:02;1.30;;;1.00;;
74373;SDS011;62809;51.090;-115.358;2022-09-09T03:25:29;2.00;;;1.10;;
74373;SDS011;62809;51.090;-115.358;2022-09-09T03:28:00;1.60;;;1.10;;
74373;SDS011;62809;51.090;-115.358;2022-09-09T03:30:28;1.50;;;1.10;;
74373;SDS011;62809;51.090;-115.358;2022-09-09T03:32:55;2.70;;;1.20;;
74373;SDS011;62809;51.090;-115.358;2022-09-09T03:35:23;1.90;;;1.10;;
74373;SDS011;62809;51.090;-115.358;2022-09-09T03:37:50;1.90;;;1.20;;
74373;SDS011;62809;51.090;-115.358;2022-09-09T03:40:18;1.80;;;1.10;;
74373;SDS011;62809;51.090;-115.358;2022-09-09T03:42:46;1.30;;;1.10;;
74373;SDS011;62809;51.090;-115.358;2022-09-09T03:45:14;1.90;;;1.00;;
74373;SDS011;62809;51.090;-115.358;2022-09-09T03:47:42;2.00;;;1.20;;
74373;SDS011;62809;51.090;-115.358;2022-09-09T03:50:10;1.90;;;1.20;;
74373;SDS011;62809;51.090;-115.358;2022-09-09T03:52:39;1.80;;;1.20;;
74373;SDS011;62809;51.090;-115.358;2022-09-09T03:55:09;1.70;;;1.20;;
74373;SDS011;62809;51.090;-115.358;2022-09-09T03:57:39;1.60;;;1.00;;
74373;SDS011;62809;51.090;-115.358;2022-09-09T04:00:08;1.30;;;1.10;;
74373;SDS011;62809;51.090;-115.358;2022-09-09T04:02:38;1.50;;;1.20;;
74373;SDS011;62809;51.090;-115.358;2022-09-09T04:05:05;1.50;;;1.10;;
74373;SDS011;62809;51.090;-115.358;2022-09-09T04:07:36;1.90;;;1.20;;
74373;SDS011;62809;51.090;-115.358;2022-09-09T04:10:03;2.20;;;1.20;;
74373;SDS011;62809;51.090;-115.358;2022-09-09T04:12:31;2.10;;;1.10;;
74373;SDS011;62809;51.090;-115.358;2022-09-09T04:14:58;1.40;;;1.00;;
74373;SDS011;62809;51.090;-115.358;2022-09-09T04:17:28;1.60;;;1.00;;
74373;SDS011;62809;51.090;-115.358;2022-09-09T04:19:56;2.50;;;1.30;;
74373;SDS011;62809;51.090;-115.358;2022-09-09T04:22:25;2.10;;;1.30;;
74373;SDS011;62809;51.090;-115.358;2022-09-09T04:24:52;1.70;;;1.20;;
74373;SDS011;62809;51.090;-115.358;2022-09-09T04:27:19;1.70;;;1.20;;
74373;SDS011;62809;51.090;-115.358;2022-09-09T04:29:47;1.80;;;1.20;;
74373;SDS011;62809;51.090;-115.358;2022-09-09T04:32:17;1.70;;;1.30;;
74373;SDS011;62809;51.090;-115.358;2022-09-09T04:34:44;1.60;;;1.10;;
74373;SDS011;62809;51.090;-115.358;2022-09-09T04:37:15;1.70;;;1.10;;
74373;SDS011;62809;51.090;-115.358;2022-09-09T04:39:42;1.70;;;1.10;;
74373;SDS011;62809;51.090;-115.358;2022-09-09T04:42:09;2.10;;;1.20;;
74373;SDS011;62809;51.090;-115.358;2022-09-09T04:44:38;1.50;;;1.10;;
74373;SDS011;62809;51.090;-115.358;2022-09-09T04:47:07;1.70;;;1.20;;
74373;SDS011;62809;51.090;-115.358;2022-09-09T04:49:35;2.00;;;1.40;;
74373;SDS011;62809;51.090;-115.358;2022-09-09T04:52:05;2.30;;;1.20;;
74373;SDS011;62809;51.090;-115.358;2022-09-09T04:54:31;1.90;;;1.10;;
74373;SDS011;62809;51.090;-115.358;2022-09-09T04:57:01;1.90;;;1.30;;
74373;SDS011;62809;51.090;-115.358;2022-09-09T04:59:29;1.70;;;1.10;;
74373;SDS011;62809;51.090;-115.358;2022-09-09T05:01:56;1.70;;;1.10;;
74373;SDS011;62809;51.090;-115.358;2022-09-09T05:04:24;2.10;;;1.40;;
74373;SDS011;62809;51.090;-115.358;2022-09-09T05:06:51;2.00;;;1.30;;
74373;SDS011;62809;51.090;-115.358;2022-09-09T05:09:21;2.00;;;1.20;;
74373;SDS011;62809;51.090;-115.358;2022-09-09T05:11:48;2.30;;;1.20;;
74373;SDS011;62809;51.090;-115.358;2022-09-09T05:14:16;1.20;;;1.10;;
74373;SDS011;62809;51.090;-115.358;2022-09-09T05:16:46;2.30;;;1.40;;
74373;SDS011;62809;51.090;-115.358;2022-09-09T05:19:15;2.00;;;1.30;;
74373;SDS011;62809;51.090;-115.358;2022-09-09T05:21:46;2.00;;;1.20;;
74373;SDS011;62809;51.090;-115.358;2022-09-09T05:24:13;2.30;;;1.30;;
74373;SDS011;62809;51.090;-115.358;2022-09-09T05:26:40;1.80;;;1.20;;
74373;SDS011;62809;51.090;-115.358;2022-09-09T05:29:07;1.50;;;1.20;;
74373;SDS011;62809;51.090;-115.358;2022-09-09T05:31:34;1.90;;;1.20;;
74373;SDS011;62809;51.090;-115.358;2022-09-09T05:34:02;2.40;;;1.40;;
74373;SDS011;62809;51.090;-115.358;2022-09-09T05:36:30;2.60;;;1.30;;
74373;SDS011;62809;51.090;-115.358;2022-09-09T05:38:57;3.00;;;1.30;;
74373;SDS011;62809;51.090;-115.358;2022-09-09T05:41:27;2.60;;;1.50;;
74373;SDS011;62809;51.090;-115.358;2022-09-09T05:43:56;2.70;;;1.50;;
74373;SDS011;62809;51.090;-115.358;2022-09-09T05:46:26;1.50;;;1.10;;
74373;SDS011;62809;51.090;-115.358;2022-09-09T05:48:54;1.90;;;1.30;;
74373;SDS011;62809;51.090;-115.358;2022-09-09T05:51:26;1.90;;;1.10;;
74373;SDS011;62809;51.090;-115.358;2022-09-09T05:54:01;2.40;;;1.50;;
74373;SDS011;62809;51.090;-115.358;2022-09-09T05:56:29;2.30;;;1.40;;
74373;SDS011;62809;51.090;-115.358;2022-09-09T05:58:59;2.30;;;1.50;;
74373;SDS011;62809;51.090;-115.358;2022-09-09T06:01:33;2.30;;;1.40;;
74373;SDS011;62809;51.090;-115.358;2022-09-09T06:04:02;2.00;;;1.20;;
74373;SDS011;62809;51.090;-115.358;2022-09-09T06:06:35;2.30;;;1.30;;
74373;SDS011;62809;51.090;-115.358;2022-09-09T06:09:07;2.10;;;1.20;;
74373;SDS011;62809;51.090;-115.358;2022-09-09T06:11:38;2.00;;;1.30;;
74373;SDS011;62809;51.090;-115.358;2022-09-09T06:14:06;1.90;;;1.20;;
74373;SDS011;62809;51.090;-115.358;2022-09-09T06:16:36;2.30;;;1.10;;
74373;SDS011;62809;51.090;-115.358;2022-09-09T06:19:06;1.90;;;1.40;;
74373;SDS011;62809;51.090;-115.358;2022-09-09T06:21:36;1.70;;;1.10;;
74373;SDS011;62809;51.090;-115.358;2022-09-09T06:24:04;2.10;;;1.20;;
74373;SDS011;62809;51.090;-115.358;2022-09-09T06:26:35;2.00;;;1.20;;
74373;SDS011;62809;51.090;-115.358;2022-09-09T06:29:09;1.90;;;1.10;;
74373;SDS011;62809;51.090;-115.358;2022-09-09T06:31:37;2.30;;;1.30;;
74373;SDS011;62809;51.090;-115.358;2022-09-09T06:34:07;1.50;;;1.00;;
74373;SDS011;62809;51.090;-115.358;2022-09-09T06:36:37;2.40;;;1.30;;
74373;SDS011;62809;51.090;-115.358;2022-09-09T06:39:06;2.10;;;1.20;;
74373;SDS011;62809;51.090;-115.358;2022-09-09T06:41:34;1.80;;;1.10;;
74373;SDS011;62809;51.090;-115.358;2022-09-09T06:44:05;1.70;;;1.20;;
74373;SDS011;62809;51.090;-115.358;2022-09-09T06:46:33;1.70;;;1.20;;
74373;SDS011;62809;51.090;-115.358;2022-09-09T06:49:01;1.70;;;1.10;;
74373;SDS011;62809;51.090;-115.358;2022-09-09T06:51:37;2.10;;;1.10;;
74373;SDS011;62809;51.090;-115.358;2022-09-09T06:54:13;1.80;;;1.10;;
74373;SDS011;62809;51.090;-115.358;2022-09-09T06:56:41;2.10;;;1.10;;
74373;SDS011;62809;51.090;-115.358;2022-09-09T06:59:09;1.80;;;1.10;;
74373;SDS011;62809;51.090;-115.358;2022-09-09T07:01:42;2.30;;;1.10;;
74373;SDS011;62809;51.090;-115.358;2022-09-09T07:04:17;1.90;;;1.10;;
74373;SDS011;62809;51.090;-115.358;2022-09-09T07:06:45;1.30;;;0.90;;
74373;SDS011;62809;51.090;-115.358;2022-09-09T07:09:16;1.90;;;1.10;;
74373;SDS011;62809;51.090;-115.358;2022-09-09T07:11:47;1.70;;;1.00;;
74373;SDS011;62809;51.090;-115.358;2022-09-09T07:14:17;1.50;;;1.00;;
74373;SDS011;62809;51.090;-115.358;2022-09-09T07:16:46;1.30;;;0.90;;
74373;SDS011;62809;51.090;-115.358;2022-09-09T07:19:15;2.00;;;1.00;;
74373;SDS011;62809;51.090;-115.358;2022-09-09T07:21:45;1.60;;;1.00;;
74373;SDS011;62809;51.090;-115.358;2022-09-09T07:24:22;1.80;;;1.00;;
74373;SDS011;62809;51.090;-115.358;2022-09-09T07:26:50;1.50;;;1.00;;
74373;SDS011;62809;51.090;-115.358;2022-09-09T07:29:20;1.30;;;0.90;;
74373;SDS011;62809;51.090;-115.358;2022-09-09T07:31:50;1.50;;;0.90;;
74373;SDS011;62809;51.090;-115.358;2022-09-09T07:34:19;1.50;;;1.00;;
74373;SDS011;62809;51.090;-115.358;2022-09-09T07:36:46;1.60;;;1.00;;
74373;SDS011;62809;51.090;-115.358;2022-09-09T07:39:14;1.80;;;0.90;;
74373;SDS011;62809;51.090;-115.358;2022-09-09T07:41:48;1.20;;;0.90;;
74373;SDS011;62809;51.090;-115.358;2022-09-09T07:44:21;2.00;;;1.00;;
74373;SDS011;62809;51.090;-115.358;2022-09-09T07:46:51;1.20;;;0.90;;
74373;SDS011;62809;51.090;-115.358;2022-09-09T07:49:20;1.60;;;1.00;;
74373;SDS011;62809;51.090;-115.358;2022-09-09T07:52:08;1.30;;;0.90;;
74373;SDS011;62809;51.090;-115.358;2022-09-09T07:54:37;1.60;;;0.80;;
74373;SDS011;62809;51.090;-115.358;2022-09-09T07:57:18;1.40;;;0.80;;
74373;SDS011;62809;51.090;-115.358;2022-09-09T07:59:49;1.40;;;1.00;;
74373;SDS011;62809;51.090;-115.358;2022-09-09T08:02:20;1.10;;;0.80;;
74373;SDS011;62809;51.090;-115.358;2022-09-09T08:04:50;1.60;;;0.80;;
74373;SDS011;62809;51.090;-115.358;2022-09-09T08:07:18;1.00;;;0.80;;
74373;SDS011;62809;51.090;-115.358;2022-09-09T08:09:49;1.40;;;0.80;;
74373;SDS011;62809;51.090;-115.358;2022-09-09T08:12:19;1.20;;;0.80;;
74373;SDS011;62809;51.090;-115.358;2022-09-09T08:14:52;1.30;;;0.80;;
74373;SDS011;62809;51.090;-115.358;2022-09-09T08:17:20;1.00;;;0.80;;
74373;SDS011;62809;51.090;-115.358;2022-09-09T08:19:57;1.20;;;0.70;;
74373;SDS011;62809;51.090;-115.358;2022-09-09T08:22:32;1.60;;;0.80;;
74373;SDS011;62809;51.090;-115.358;2022-09-09T08:25:00;0.90;;;0.70;;
74373;SDS011;62809;51.090;-115.358;2022-09-09T08:27:32;1.80;;;0.90;;
74373;SDS011;62809;51.090;-115.358;2022-09-09T08:30:00;1.60;;;0.80;;
74373;SDS011;62809;51.090;-115.358;2022-09-09T08:32:27;1.00;;;0.60;;
74373;SDS011;62809;51.090;-115.358;2022-09-09T08:34:55;1.80;;;0.80;;
74373;SDS011;62809;51.090;-115.358;2022-09-09T08:37:22;0.80;;;0.60;;
74373;SDS011;62809;51.090;-115.358;2022-09-09T08:39:49;0.90;;;0.60;;
74373;SDS011;62809;51.090;-115.358;2022-09-09T08:42:31;1.10;;;0.90;;
74373;SDS011;62809;51.090;-115.358;2022-09-09T08:45:23;1.00;;;0.80;;
74373;SDS011;62809;51.090;-115.358;2022-09-09T08:48:15;1.50;;;0.70;;
74373;SDS011;62809;51.090;-115.358;2022-09-09T08:50:57;1.30;;;0.80;;
74373;SDS011;62809;51.090;-115.358;2022-09-09T08:53:39;0.70;;;0.60;;
74373;SDS011;62809;51.090;-115.358;2022-09-09T08:56:16;1.00;;;0.70;;
74373;SDS011;62809;51.090;-115.358;2022-09-09T08:58:52;1.30;;;0.70;;
74373;SDS011;62809;51.090;-115.358;2022-09-09T09:04:12;1.00;;;0.80;;
74373;SDS011;62809;51.090;-115.358;2022-09-09T09:07:04;1.10;;;0.80;;
74373;SDS011;62809;51.090;-115.358;2022-09-09T09:09:57;0.90;;;0.70;;
74373;SDS011;62809;51.090;-115.358;2022-09-09T09:12:41;2.10;;;0.70;;
74373;SDS011;62809;51.090;-115.358;2022-09-09T09:15:26;1.10;;;0.70;;
74373;SDS011;62809;51.090;-115.358;2022-09-09T09:18:41;1.10;;;0.70;;
74373;SDS011;62809;51.090;-115.358;2022-09-09T09:21:12;0.90;;;0.60;;
74373;SDS011;62809;51.090;-115.358;2022-09-09T09:23:51;1.10;;;0.60;;
74373;SDS011;62809;51.090;-115.358;2022-09-09T09:26:29;0.90;;;0.60;;
74373;SDS011;62809;51.090;-115.358;2022-09-09T09:29:18;0.80;;;0.60;;
74373;SDS011;62809;51.090;-115.358;2022-09-09T09:32:25;0.90;;;0.70;;
74373;SDS011;62809;51.090;-115.358;2022-09-09T09:34:57;0.70;;;0.60;;
74373;SDS011;62809;51.090;-115.358;2022-09-09T09:37:34;1.20;;;0.90;;
74373;SDS011;62809;51.090;-115.358;2022-09-09T09:40:15;1.10;;;0.60;;
74373;SDS011;62809;51.090;-115.358;2022-09-09T09:42:59;1.20;;;0.60;;
74373;SDS011;62809;51.090;-115.358;2022-09-09T09:45:34;0.80;;;0.60;;
74373;SDS011;62809;51.090;-115.358;2022-09-09T09:48:20;0.60;;;0.50;;
74373;SDS011;62809;51.090;-115.358;2022-09-09T09:53:29;1.00;;;0.70;;
74373;SDS011;62809;51.090;-115.358;2022-09-09T09:56:09;0.70;;;0.60;;
74373;SDS011;62809;51.090;-115.358;2022-09-09T10:03:58;1.40;;;0.70;;
74373;SDS011;62809;51.090;-115.358;2022-09-09T10:06:35;0.80;;;0.60;;
74373;SDS011;62809;51.090;-115.358;2022-09-09T10:09:25;0.70;;;0.50;;
74373;SDS011;62809;51.090;-115.358;2022-09-09T10:26:37;1.50;;;0.50;;
74373;SDS011;62809;51.090;-115.358;2022-09-09T10:35:09;0.90;;;0.60;;
74373;SDS011;62809;51.090;-115.358;2022-09-09T10:51:56;1.00;;;0.50;;
74373;SDS011;62809;51.090;-115.358;2022-09-09T10:54:47;0.80;;;0.50;;
74373;SDS011;62809;51.090;-115.358;2022-09-09T10:57:39;0.80;;;0.60;;
74373;SDS011;62809;51.090;-115.358;2022-09-09T11:00:23;0.70;;;0.50;;
74373;SDS011;62809;51.090;-115.358;2022-09-09T11:03:03;0.70;;;0.60;;
74373;SDS011;62809;51.090;-115.358;2022-09-09T11:08:21;0.90;;;0.60;;
74373;SDS011;62809;51.090;-115.358;2022-09-09T11:11:02;0.90;;;0.50;;
74373;SDS011;62809;51.090;-115.358;2022-09-09T11:19:19;1.10;;;0.60;;
74373;SDS011;62809;51.090;-115.358;2022-09-09T11:25:38;0.60;;;0.50;;
74373;SDS011;62809;51.090;-115.358;2022-09-09T11:34:26;0.70;;;0.50;;
74373;SDS011;62809;51.090;-115.358;2022-09-09T11:40:23;1.10;;;0.50;;
74373;SDS011;62809;51.090;-115.358;2022-09-09T11:45:52;0.60;;;0.50;;
74373;SDS011;62809;51.090;-115.358;2022-09-09T11:48:33;0.70;;;0.50;;
74373;SDS011;62809;51.090;-115.358;2022-09-09T11:51:28;1.40;;;0.50;;
74373;SDS011;62809;51.090;-115.358;2022-09-09T11:54:26;0.60;;;0.40;;
74373;SDS011;62809;51.090;-115.358;2022-09-09T11:56:58;0.40;;;0.40;;
74373;SDS011;62809;51.090;-115.358;2022-09-09T11:59:31;0.80;;;0.50;;
74373;SDS011;62809;51.090;-115.358;2022-09-09T12:02:36;0.90;;;0.70;;
74373;SDS011;62809;51.090;-115.358;2022-09-09T12:05:37;0.80;;;0.60;;
74373;SDS011;62809;51.090;-115.358;2022-09-09T12:08:16;0.90;;;0.50;;
74373;SDS011;62809;51.090;-115.358;2022-09-09T12:10:58;0.50;;;0.50;;
74373;SDS011;62809;51.090;-115.358;2022-09-09T12:13:30;1.10;;;0.60;;
74373;SDS011;62809;51.090;-115.358;2022-09-09T12:16:00;0.50;;;0.40;;
74373;SDS011;62809;51.090;-115.358;2022-09-09T12:18:41;1.00;;;0.50;;
74373;SDS011;62809;51.090;-115.358;2022-09-09T12:24:12;0.60;;;0.50;;
74373;SDS011;62809;51.090;-115.358;2022-09-09T12:26:58;0.80;;;0.50;;
74373;SDS011;62809;51.090;-115.358;2022-09-09T12:29:50;0.50;;;0.40;;
74373;SDS011;62809;51.090;-115.358;2022-09-09T12:32:29;0.60;;;0.50;;
74373;SDS011;62809;51.090;-115.358;2022-09-09T12:35:22;1.90;;;0.60;;
74373;SDS011;62809;51.090;-115.358;2022-09-09T12:38:03;1.00;;;0.50;;
74373;SDS011;62809;51.090;-115.358;2022-09-09T12:40:35;0.50;;;0.50;;
74373;SDS011;62809;51.090;-115.358;2022-09-09T12:43:24;1.60;;;0.50;;
74373;SDS011;62809;51.090;-115.358;2022-09-09T12:46:03;1.30;;;0.60;;
74373;SDS011;62809;51.090;-115.358;2022-09-09T12:49:18;1.00;;;0.50;;
74373;SDS011;62809;51.090;-115.358;2022-09-09T12:51:55;0.60;;;0.40;;
74373;SDS011;62809;51.090;-115.358;2022-09-09T12:54:27;0.70;;;0.50;;
74373;SDS011;62809;51.090;-115.358;2022-09-09T12:56:57;0.40;;;0.40;;
74373;SDS011;62809;51.090;-115.358;2022-09-09T12:59:37;0.80;;;0.50;;
74373;SDS011;62809;51.090;-115.358;2022-09-09T13:02:56;0.60;;;0.50;;
74373;SDS011;62809;51.090;-115.358;2022-09-09T13:05:37;0.70;;;0.50;;
74373;SDS011;62809;51.090;-115.358;2022-09-09T13:08:07;0.60;;;0.50;;
74373;SDS011;62809;51.090;-115.358;2022-09-09T13:13:22;0.60;;;0.50;;
74373;SDS011;62809;51.090;-115.358;2022-09-09T13:15:57;0.70;;;0.50;;
74373;SDS011;62809;51.090;-115.358;2022-09-09T13:18:32;0.90;;;0.50;;
74373;SDS011;62809;51.090;-115.358;2022-09-09T13:21:05;0.70;;;0.50;;
74373;SDS011;62809;51.090;-115.358;2022-09-09T13:23:36;0.50;;;0.40;;
74373;SDS011;62809;51.090;-115.358;2022-09-09T13:26:06;0.80;;;0.50;;
74373;SDS011;62809;51.090;-115.358;2022-09-09T13:28:48;0.40;;;0.40;;
74373;SDS011;62809;51.090;-115.358;2022-09-09T13:31:34;1.10;;;0.50;;
74373;SDS011;62809;51.090;-115.358;2022-09-09T13:37:22;0.50;;;0.50;;
74373;SDS011;62809;51.090;-115.358;2022-09-09T13:39:53;0.60;;;0.50;;
74373;SDS011;62809;51.090;-115.358;2022-09-09T13:42:27;0.40;;;0.40;;
74373;SDS011;62809;51.090;-115.358;2022-09-09T13:44:56;0.60;;;0.50;;
74373;SDS011;62809;51.090;-115.358;2022-09-09T13:47:37;0.60;;;0.50;;
74373;SDS011;62809;51.090;-115.358;2022-09-09T13:50:21;0.90;;;0.50;;
74373;SDS011;62809;51.090;-115.358;2022-09-09T13:52:52;0.60;;;0.50;;
74373;SDS011;62809;51.090;-115.358;2022-09-09T13:55:30;0.70;;;0.50;;
74373;SDS011;62809;51.090;-115.358;2022-09-09T13:58:01;0.70;;;0.50;;
74373;SDS011;62809;51.090;-115.358;2022-09-09T14:00:41;0.50;;;0.50;;
74373;SDS011;62809;51.090;-115.358;2022-09-09T14:03:09;0.70;;;0.40;;
74373;SDS011;62809;51.090;-115.358;2022-09-09T14:05:37;0.60;;;0.50;;
74373;SDS011;62809;51.090;-115.358;2022-09-09T14:08:24;0.50;;;0.40;;
74373;SDS011;62809;51.090;-115.358;2022-09-09T14:10:56;0.60;;;0.50;;
74373;SDS011;62809;51.090;-115.358;2022-09-09T14:13:25;0.70;;;0.50;;
74373;SDS011;62809;51.090;-115.358;2022-09-09T14:15:55;0.80;;;0.40;;
74373;SDS011;62809;51.090;-115.358;2022-09-09T14:18:24;0.50;;;0.40;;
74373;SDS011;62809;51.090;-115.358;2022-09-09T14:20:51;0.60;;;0.50;;
74373;SDS011;62809;51.090;-115.358;2022-09-09T14:23:19;0.50;;;0.40;;
74373;SDS011;62809;51.090;-115.358;2022-09-09T14:25:47;0.50;;;0.40;;
74373;SDS011;62809;51.090;-115.358;2022-09-09T14:28:15;0.50;;;0.50;;
74373;SDS011;62809;51.090;-115.358;2022-09-09T14:30:43;0.70;;;0.40;;
74373;SDS011;62809;51.090;-115.358;2022-09-09T14:33:12;0.70;;;0.50;;
74373;SDS011;62809;51.090;-115.358;2022-09-09T14:35:43;0.70;;;0.50;;
74373;SDS011;62809;51.090;-115.358;2022-09-09T14:38:13;1.00;;;0.60;;
74373;SDS011;62809;51.090;-115.358;2022-09-09T14:40:40;1.40;;;0.50;;
74373;SDS011;62809;51.090;-115.358;2022-09-09T14:43:10;1.20;;;0.50;;
74373;SDS011;62809;51.090;-115.358;2022-09-09T14:45:38;1.30;;;0.50;;
74373;SDS011;62809;51.090;-115.358;2022-09-09T14:48:05;0.80;;;0.50;;
74373;SDS011;62809;51.090;-115.358;2022-09-09T14:50:34;0.90;;;0.50;;
74373;SDS011;62809;51.090;-115.358;2022-09-09T14:53:06;1.00;;;0.50;;
74373;SDS011;62809;51.090;-115.358;2022-09-09T14:55:35;0.90;;;0.50;;
74373;SDS011;62809;51.090;-115.358;2022-09-09T14:58:05;0.60;;;0.40;;
74373;SDS011;62809;51.090;-115.358;2022-09-09T15:00:33;1.60;;;0.60;;
74373;SDS011;62809;51.090;-115.358;2022-09-09T15:03:02;2.60;;;0.50;;
74373;SDS011;62809;51.090;-115.358;2022-09-09T15:05:32;1.70;;;0.50;;
74373;SDS011;62809;51.090;-115.358;2022-09-09T15:07:58;1.30;;;0.50;;
74373;SDS011;62809;51.090;-115.358;2022-09-09T15:10:28;0.60;;;0.40;;
74373;SDS011;62809;51.090;-115.358;2022-09-09T15:12:58;1.60;;;0.50;;
74373;SDS011;62809;51.090;-115.358;2022-09-09T15:15:25;0.80;;;0.40;;
74373;SDS011;62809;51.090;-115.358;2022-09-09T15:17:52;1.50;;;0.50;;
74373;SDS011;62809;51.090;-115.358;2022-09-09T15:20:19;2.00;;;0.70;;
74373;SDS011;62809;51.090;-115.358;2022-09-09T15:22:49;0.90;;;0.50;;
74373;SDS011;62809;51.090;-115.358;2022-09-09T15:25:18;0.60;;;0.50;;
74373;SDS011;62809;51.090;-115.358;2022-09-09T15:27:45;1.20;;;0.50;;
74373;SDS011;62809;51.090;-115.358;2022-09-09T15:30:12;0.50;;;0.40;;
74373;SDS011;62809;51.090;-115.358;2022-09-09T15:32:39;0.90;;;0.50;;
74373;SDS011;62809;51.090;-115.358;2022-09-09T15:35:08;0.50;;;0.40;;
74373;SDS011;62809;51.090;-115.358;2022-09-09T15:37:36;1.90;;;0.50;;
74373;SDS011;62809;51.090;-115.358;2022-09-09T15:40:03;1.10;;;0.50;;
74373;SDS011;62809;51.090;-115.358;2022-09-09T15:42:32;0.80;;;0.40;;
74373;SDS011;62809;51.090;-115.358;2022-09-09T15:44:59;1.00;;;0.50;;
74373;SDS011;62809;51.090;-115.358;2022-09-09T15:47:26;1.20;;;0.50;;
74373;SDS011;62809;51.090;-115.358;2022-09-09T15:49:55;0.70;;;0.50;;
74373;SDS011;62809;51.090;-115.358;2022-09-09T15:52:23;0.50;;;0.50;;
74373;SDS011;62809;51.090;-115.358;2022-09-09T15:54:52;2.10;;;0.40;;
74373;SDS011;62809;51.090;-115.358;2022-09-09T15:57:19;0.40;;;0.40;;
74373;SDS011;62809;51.090;-115.358;2022-09-09T15:59:46;0.60;;;0.50;;
74373;SDS011;62809;51.090;-115.358;2022-09-09T16:02:14;0.70;;;0.40;;
74373;SDS011;62809;51.090;-115.358;2022-09-09T16:04:45;1.80;;;0.50;;
74373;SDS011;62809;51.090;-115.358;2022-09-09T16:07:12;0.90;;;0.50;;
74373;SDS011;62809;51.090;-115.358;2022-09-09T16:09:40;1.10;;;0.60;;
74373;SDS011;62809;51.090;-115.358;2022-09-09T16:12:09;0.70;;;0.50;;
74373;SDS011;62809;51.090;-115.358;2022-09-09T16:14:38;0.80;;;0.50;;
74373;SDS011;62809;51.090;-115.358;2022-09-09T16:17:10;0.80;;;0.50;;
74373;SDS011;62809;51.090;-115.358;2022-09-09T16:19:40;0.50;;;0.40;;
74373;SDS011;62809;51.090;-115.358;2022-09-09T16:22:07;0.70;;;0.50;;
74373;SDS011;62809;51.090;-115.358;2022-09-09T16:24:35;2.30;;;0.60;;
74373;SDS011;62809;51.090;-115.358;2022-09-09T16:27:04;0.70;;;0.50;;
74373;SDS011;62809;51.090;-115.358;2022-09-09T16:29:32;1.10;;;0.40;;
74373;SDS011;62809;51.090;-115.358;2022-09-09T16:32:04;0.60;;;0.50;;
74373;SDS011;62809;51.090;-115.358;2022-09-09T16:34:31;2.00;;;0.50;;
74373;SDS011;62809;51.090;-115.358;2022-09-09T16:37:30;1.70;;;0.50;;
74373;SDS011;62809;51.090;-115.358;2022-09-09T16:40:00;0.50;;;0.40;;
74373;SDS011;62809;51.090;-115.358;2022-09-09T16:42:29;0.60;;;0.40;;
74373;SDS011;62809;51.090;-115.358;2022-09-09T16:44:57;1.80;;;0.70;;
74373;SDS011;62809;51.090;-115.358;2022-09-09T16:47:23;0.70;;;0.50;;
74373;SDS011;62809;51.090;-115.358;2022-09-09T16:49:52;1.70;;;0.60;;